sensor_id;sensor_type;location;lat;lon;timestamp;pressure;altitude;pressure_sealevel;temperature;humidity
55679;BME280;41573;51.446;-2.018;2022-10-13T00:01:51;100953.38;;;12.61;100.00
55679;BME280;41573;51.446;-2.018;2022-10-13T00:04:16;100951.94;;;12.55;100.00
55679;BME280;41573;51.446;-2.018;2022-10-13T00:06:41;100952.06;;;12.53;100.00
55679;BME280;41573;51.446;-2.018;2022-10-13T00:09:07;100947.19;;;12.46;100.00
55679;BME280;41573;51.446;-2.018;2022-10-13T00:11:32;100951.84;;;12.42;100.00
55679;BME280;41573;51.446;-2.018;2022-10-13T00:14:00;100952.06;;;12.39;100.00
55679;BME280;41573;51.446;-2.018;2022-10-13T00:16:27;100955.88;;;12.35;100.00
55679;BME280;41573;51.446;-2.018;2022-10-13T00:18:53;100952.63;;;12.30;100.00
55679;BME280;41573;51.446;-2.018;2022-10-13T00:21:21;100945.78;;;12.26;100.00
55679;BME280;41573;51.446;-2.018;2022-10-13T00:23:46;100946.81;;;12.23;100.00
55679;BME280;41573;51.446;-2.018;2022-10-13T00:26:13;100955.84;;;12.20;100.00
55679;BME280;41573;51.446;-2.018;2022-10-13T00:28:40;100951.47;;;12.19;100.00
55679;BME280;41573;51.446;-2.018;2022-10-13T00:31:15;100959.56;;;12.18;100.00
55679;BME280;41573;51.446;-2.018;2022-10-13T00:33:41;100955.09;;;12.18;100.00
55679;BME280;41573;51.446;-2.018;2022-10-13T00:36:07;100941.75;;;12.18;100.00
55679;BME280;41573;51.446;-2.018;2022-10-13T00:38:32;100949.78;;;12.18;100.00
55679;BME280;41573;51.446;-2.018;2022-10-13T00:40:57;100956.81;;;12.19;100.00
55679;BME280;41573;51.446;-2.018;2022-10-13T00:43:25;100955.22;;;12.17;100.00
55679;BME280;41573;51.446;-2.018;2022-10-13T00:45:52;100962.25;;;12.18;100.00
55679;BME280;41573;51.446;-2.018;2022-10-13T00:48:21;100955.09;;;12.18;100.00
55679;BME280;41573;51.446;-2.018;2022-10-13T00:50:48;100962.34;;;12.16;100.00
55679;BME280;41573;51.446;-2.018;2022-10-13T00:53:15;100964.16;;;12.16;100.00
55679;BME280;41573;51.446;-2.018;2022-10-13T00:55:43;100964.06;;;12.17;100.00
55679;BME280;41573;51.446;-2.018;2022-10-13T00:58:11;100955.97;;;12.19;100.00
55679;BME280;41573;51.446;-2.018;2022-10-13T01:00:42;100962.16;;;12.19;100.00
55679;BME280;41573;51.446;-2.018;2022-10-13T01:03:09;100963.88;;;12.20;100.00
55679;BME280;41573;51.446;-2.018;2022-10-13T01:05:35;100965.59;;;12.21;100.00
55679;BME280;41573;51.446;-2.018;2022-10-13T01:08:02;100966.53;;;12.20;100.00
55679;BME280;41573;51.446;-2.018;2022-10-13T01:16:00;100980.81;;;12.05;100.00
55679;BME280;41573;51.446;-2.018;2022-10-13T01:24:42;100979.47;;;11.98;100.00
55679;BME280;41573;51.446;-2.018;2022-10-13T01:30:17;100979.47;;;11.98;100.00
55679;BME280;41573;51.446;-2.018;2022-10-13T01:37:53;100967.94;;;11.97;100.00
55679;BME280;41573;51.446;-2.018;2022-10-13T01:40:28;100966.22;;;11.96;100.00
55679;BME280;41573;51.446;-2.018;2022-10-13T01:45:29;100966.31;;;11.95;100.00
55679;BME280;41573;51.446;-2.018;2022-10-13T01:47:57;100967.25;;;11.94;100.00
55679;BME280;41573;51.446;-2.018;2022-10-13T01:50:24;100963.81;;;11.92;100.00
55679;BME280;41573;51.446;-2.018;2022-10-13T01:52:50;100965.69;;;11.89;100.00
55679;BME280;41573;51.446;-2.018;2022-10-13T01:55:17;100955.00;;;11.89;100.00
55679;BME280;41573;51.446;-2.018;2022-10-13T01:57:44;100949.84;;;11.86;100.00
55679;BME280;41573;51.446;-2.018;2022-10-13T02:00:15;100939.19;;;11.86;100.00
55679;BME280;41573;51.446;-2.018;2022-10-13T02:03:04;100929.09;;;11.92;100.00
55679;BME280;41573;51.446;-2.018;2022-10-13T02:05:45;100917.66;;;11.89;100.00
55679;BME280;41573;51.446;-2.018;2022-10-13T02:08:24;100908.13;;;11.85;100.00
55679;BME280;41573;51.446;-2.018;2022-10-13T02:11:02;100903.75;;;11.84;100.00
55679;BME280;41573;51.446;-2.018;2022-10-13T02:13:33;100894.09;;;11.82;100.00
55679;BME280;41573;51.446;-2.018;2022-10-13T02:16:00;100900.47;;;11.79;100.00
55679;BME280;41573;51.446;-2.018;2022-10-13T02:18:30;100899.72;;;11.77;100.00
55679;BME280;41573;51.446;-2.018;2022-10-13T02:20:58;100901.63;;;11.75;100.00
55679;BME280;41573;51.446;-2.018;2022-10-13T02:23:24;100900.84;;;11.73;100.00
55679;BME280;41573;51.446;-2.018;2022-10-13T02:25:51;100904.47;;;11.72;100.00
55679;BME280;41573;51.446;-2.018;2022-10-13T02:28:16;100908.16;;;11.69;100.00
55679;BME280;41573;51.446;-2.018;2022-10-13T02:30:44;100902.19;;;11.66;100.00
55679;BME280;41573;51.446;-2.018;2022-10-13T02:33:10;100899.50;;;11.66;100.00
55679;BME280;41573;51.446;-2.018;2022-10-13T02:35:36;100899.50;;;11.66;100.00
55679;BME280;41573;51.446;-2.018;2022-10-13T02:38:02;100891.59;;;11.64;100.00
55679;BME280;41573;51.446;-2.018;2022-10-13T02:40:28;100897.97;;;11.62;100.00
55679;BME280;41573;51.446;-2.018;2022-10-13T02:42:53;100895.09;;;11.50;100.00
55679;BME280;41573;51.446;-2.018;2022-10-13T02:45:19;100905.44;;;11.41;100.00
55679;BME280;41573;51.446;-2.018;2022-10-13T02:47:44;100901.13;;;11.38;100.00
55679;BME280;41573;51.446;-2.018;2022-10-13T02:50:10;100897.91;;;11.33;100.00
55679;BME280;41573;51.446;-2.018;2022-10-13T02:52:36;100894.63;;;11.28;100.00
55679;BME280;41573;51.446;-2.018;2022-10-13T02:55:02;100891.97;;;11.28;100.00
55679;BME280;41573;51.446;-2.018;2022-10-13T02:57:28;100883.13;;;11.27;100.00
55679;BME280;41573;51.446;-2.018;2022-10-13T02:59:53;100891.97;;;11.28;100.00
55679;BME280;41573;51.446;-2.018;2022-10-13T03:02:19;100885.69;;;11.29;100.00
55679;BME280;41573;51.446;-2.018;2022-10-13T03:04:44;100888.16;;;11.32;100.00
55679;BME280;41573;51.446;-2.018;2022-10-13T03:07:10;100895.97;;;11.35;100.00
55679;BME280;41573;51.446;-2.018;2022-10-13T03:09:35;100891.69;;;11.32;100.00
55679;BME280;41573;51.446;-2.018;2022-10-13T03:12:01;100896.16;;;11.32;100.00
55679;BME280;41573;51.446;-2.018;2022-10-13T03:14:26;100896.16;;;11.32;100.00
55679;BME280;41573;51.446;-2.018;2022-10-13T03:16:52;100897.09;;;11.31;100.00
55679;BME280;41573;51.446;-2.018;2022-10-13T03:19:17;100890.84;;;11.32;100.00
55679;BME280;41573;51.446;-2.018;2022-10-13T03:21:43;100891.03;;;11.29;100.00
55679;BME280;41573;51.446;-2.018;2022-10-13T03:24:08;100885.84;;;11.26;100.00
55679;BME280;41573;51.446;-2.018;2022-10-13T03:26:34;100887.00;;;11.21;100.00
55679;BME280;41573;51.446;-2.018;2022-10-13T03:28:59;100884.41;;;11.20;100.00
55679;BME280;41573;51.446;-2.018;2022-10-13T03:31:25;100884.56;;;11.17;100.00
55679;BME280;41573;51.446;-2.018;2022-10-13T03:33:50;100887.50;;;11.12;100.00
55679;BME280;41573;51.446;-2.018;2022-10-13T03:36:16;100881.44;;;11.10;100.00
55679;BME280;41573;51.446;-2.018;2022-10-13T03:38:42;100873.44;;;11.10;100.00
55679;BME280;41573;51.446;-2.018;2022-10-13T03:41:11;100876.19;;;11.09;100.00
55679;BME280;41573;51.446;-2.018;2022-10-13T03:43:36;100873.66;;;11.06;100.00
55679;BME280;41573;51.446;-2.018;2022-10-13T03:46:04;100870.44;;;11.00;100.00
55679;BME280;41573;51.446;-2.018;2022-10-13T03:48:31;100872.41;;;10.97;100.00
55679;BME280;41573;51.446;-2.018;2022-10-13T03:50:56;100875.16;;;10.95;100.00
55679;BME280;41573;51.446;-2.018;2022-10-13T03:53:22;100873.34;;;10.96;100.00
55679;BME280;41573;51.446;-2.018;2022-10-13T03:55:52;100871.63;;;10.95;100.00
55679;BME280;41573;51.446;-2.018;2022-10-13T03:58:18;100871.47;;;10.98;100.00
55679;BME280;41573;51.446;-2.018;2022-10-13T04:00:43;100868.00;;;10.96;100.00
55679;BME280;41573;51.446;-2.018;2022-10-13T04:03:09;100858.75;;;10.87;100.00
55679;BME280;41573;51.446;-2.018;2022-10-13T04:05:35;100863.59;;;10.80;100.00
55679;BME280;41573;51.446;-2.018;2022-10-13T04:08:00;100862.53;;;10.67;100.00
55679;BME280;41573;51.446;-2.018;2022-10-13T04:10:26;100864.34;;;10.50;100.00
55679;BME280;41573;51.446;-2.018;2022-10-13T04:12:51;100863.47;;;10.34;100.00
55679;BME280;41573;51.446;-2.018;2022-10-13T04:15:16;100869.25;;;10.25;100.00
55679;BME280;41573;51.446;-2.018;2022-10-13T04:17:42;100876.91;;;10.15;100.00
55679;BME280;41573;51.446;-2.018;2022-10-13T04:20:07;100870.19;;;10.08;100.00
55679;BME280;41573;51.446;-2.018;2022-10-13T04:22:33;100865.09;;;10.03;100.00
55679;BME280;41573;51.446;-2.018;2022-10-13T04:24:59;100863.44;;;10.00;100.00
55679;BME280;41573;51.446;-2.018;2022-10-13T04:27:24;100862.78;;;9.97;100.00
55679;BME280;41573;51.446;-2.018;2022-10-13T04:29:51;100862.44;;;10.03;100.00
55679;BME280;41573;51.446;-2.018;2022-10-13T04:32:17;100863.25;;;9.88;100.00
55679;BME280;41573;51.446;-2.018;2022-10-13T04:34:42;100860.91;;;9.81;100.00
55679;BME280;41573;51.446;-2.018;2022-10-13T04:37:07;100860.28;;;9.76;100.00
55679;BME280;41573;51.446;-2.018;2022-10-13T04:39:33;100860.44;;;9.73;100.00
55679;BME280;41573;51.446;-2.018;2022-10-13T04:41:58;100857.31;;;9.65;100.00
55679;BME280;41573;51.446;-2.018;2022-10-13T04:44:24;100851.56;;;9.57;100.00
55679;BME280;41573;51.446;-2.018;2022-10-13T04:46:49;100859.47;;;9.58;100.00
55679;BME280;41573;51.446;-2.018;2022-10-13T04:49:15;100856.69;;;9.77;100.00
55679;BME280;41573;51.446;-2.018;2022-10-13T04:51:41;100861.97;;;9.61;100.00
55679;BME280;41573;51.446;-2.018;2022-10-13T04:54:06;100870.03;;;9.60;100.00
55679;BME280;41573;51.446;-2.018;2022-10-13T04:56:32;100875.50;;;9.57;100.00
55679;BME280;41573;51.446;-2.018;2022-10-13T04:58:58;100884.19;;;9.43;100.00
55679;BME280;41573;51.446;-2.018;2022-10-13T05:01:24;100875.16;;;9.28;100.00
55679;BME280;41573;51.446;-2.018;2022-10-13T05:03:52;100869.31;;;9.21;100.00
55679;BME280;41573;51.446;-2.018;2022-10-13T05:06:19;100873.84;;;9.19;100.00
55679;BME280;41573;51.446;-2.018;2022-10-13T05:08:45;100876.88;;;9.11;100.00
55679;BME280;41573;51.446;-2.018;2022-10-13T05:11:11;100878.63;;;9.12;100.00
55679;BME280;41573;51.446;-2.018;2022-10-13T05:13:36;100865.31;;;9.12;100.00
55679;BME280;41573;51.446;-2.018;2022-10-13T05:16:09;100867.81;;;9.16;100.00
55679;BME280;41573;51.446;-2.018;2022-10-13T05:18:36;100868.59;;;9.18;100.00
55679;BME280;41573;51.446;-2.018;2022-10-13T05:21:06;100865.00;;;9.19;100.00
55679;BME280;41573;51.446;-2.018;2022-10-13T05:23:32;100871.00;;;9.22;100.00
55679;BME280;41573;51.446;-2.018;2022-10-13T05:26:01;100865.41;;;9.28;100.00
55679;BME280;41573;51.446;-2.018;2022-10-13T05:28:26;100866.25;;;9.29;100.00
55679;BME280;41573;51.446;-2.018;2022-10-13T05:30:51;100867.81;;;9.33;100.00
55679;BME280;41573;51.446;-2.018;2022-10-13T05:33:17;100864.00;;;9.39;100.00
55679;BME280;41573;51.446;-2.018;2022-10-13T05:35:42;100858.84;;;9.36;100.00
55679;BME280;41573;51.446;-2.018;2022-10-13T05:38:07;100860.78;;;9.32;100.00
55679;BME280;41573;51.446;-2.018;2022-10-13T05:40:33;100867.81;;;9.33;100.00
55679;BME280;41573;51.446;-2.018;2022-10-13T05:42:58;100869.56;;;9.34;100.00
55679;BME280;41573;51.446;-2.018;2022-10-13T05:45:27;100875.88;;;9.31;100.00
55679;BME280;41573;51.446;-2.018;2022-10-13T05:47:53;100871.66;;;9.27;100.00
55679;BME280;41573;51.446;-2.018;2022-10-13T05:50:19;100881.56;;;9.24;100.00
55679;BME280;41573;51.446;-2.018;2022-10-13T05:52:44;100880.03;;;9.20;100.00
55679;BME280;41573;51.446;-2.018;2022-10-13T05:55:12;100884.53;;;9.18;100.00
55679;BME280;41573;51.446;-2.018;2022-10-13T05:57:42;100884.69;;;9.14;100.00
55679;BME280;41573;51.446;-2.018;2022-10-13T06:00:11;100878.66;;;9.11;100.00
55679;BME280;41573;51.446;-2.018;2022-10-13T06:02:44;100882.97;;;9.13;100.00
55679;BME280;41573;51.446;-2.018;2022-10-13T06:05:14;100878.72;;;9.09;100.00
55679;BME280;41573;51.446;-2.018;2022-10-13T06:07:41;100874.38;;;9.08;100.00
55679;BME280;41573;51.446;-2.018;2022-10-13T06:10:08;100869.19;;;9.05;100.00
55679;BME280;41573;51.446;-2.018;2022-10-13T06:12:34;100865.59;;;9.06;100.00
55679;BME280;41573;51.446;-2.018;2022-10-13T06:14:59;100862.03;;;9.07;100.00
55679;BME280;41573;51.446;-2.018;2022-10-13T06:17:25;100859.28;;;9.09;100.00
55679;BME280;41573;51.446;-2.018;2022-10-13T06:19:50;100857.81;;;9.21;100.00
55679;BME280;41573;51.446;-2.018;2022-10-13T06:22:16;100852.97;;;9.11;100.00
55679;BME280;41573;51.446;-2.018;2022-10-13T06:24:41;100847.00;;;9.06;100.00
55679;BME280;41573;51.446;-2.018;2022-10-13T06:27:07;100845.00;;;9.11;100.00
55679;BME280;41573;51.446;-2.018;2022-10-13T06:29:32;100841.16;;;9.17;100.00
55679;BME280;41573;51.446;-2.018;2022-10-13T06:32:01;100850.78;;;9.20;100.00
55679;BME280;41573;51.446;-2.018;2022-10-13T06:34:31;100848.06;;;9.21;100.00
55679;BME280;41573;51.446;-2.018;2022-10-13T06:37:00;100849.69;;;9.24;100.00
55679;BME280;41573;51.446;-2.018;2022-10-13T06:39:25;100851.56;;;9.22;100.00
55679;BME280;41573;51.446;-2.018;2022-10-13T06:41:51;100859.53;;;9.22;100.00
55679;BME280;41573;51.446;-2.018;2022-10-13T06:44:17;100851.25;;;9.28;100.00
55679;BME280;41573;51.446;-2.018;2022-10-13T06:46:42;100854.69;;;9.30;100.00
55679;BME280;41573;51.446;-2.018;2022-10-13T06:49:07;100851.41;;;9.25;100.00
55679;BME280;41573;51.446;-2.018;2022-10-13T06:51:34;100849.63;;;9.25;100.00
55679;BME280;41573;51.446;-2.018;2022-10-13T06:54:00;100845.16;;;9.26;100.00
55679;BME280;41573;51.446;-2.018;2022-10-13T06:56:25;100841.56;;;9.27;100.00
55679;BME280;41573;51.446;-2.018;2022-10-13T06:58:50;100852.88;;;9.30;100.00
55679;BME280;41573;51.446;-2.018;2022-10-13T07:01:16;100859.84;;;9.33;100.00
55679;BME280;41573;51.446;-2.018;2022-10-13T07:03:41;100857.91;;;9.37;100.00
55679;BME280;41573;51.446;-2.018;2022-10-13T07:06:07;100860.50;;;9.38;100.00
55679;BME280;41573;51.446;-2.018;2022-10-13T07:08:33;100863.91;;;9.40;100.00
55679;BME280;41573;51.446;-2.018;2022-10-13T07:11:05;100871.66;;;9.45;100.00
55679;BME280;41573;51.446;-2.018;2022-10-13T07:13:30;100866.25;;;9.46;100.00
55679;BME280;41573;51.446;-2.018;2022-10-13T07:15:56;100870.41;;;9.52;100.00
55679;BME280;41573;51.446;-2.018;2022-10-13T07:18:21;100871.13;;;9.56;100.00
55679;BME280;41573;51.446;-2.018;2022-10-13T07:20:47;100871.03;;;9.57;100.00
55679;BME280;41573;51.446;-2.018;2022-10-13T07:23:12;100868.47;;;9.56;100.00
55679;BME280;41573;51.446;-2.018;2022-10-13T07:25:37;100874.47;;;9.59;100.00
55679;BME280;41573;51.446;-2.018;2022-10-13T07:28:03;100877.00;;;9.62;100.00
55679;BME280;41573;51.446;-2.018;2022-10-13T07:30:28;100875.19;;;9.63;100.00
55679;BME280;41573;51.446;-2.018;2022-10-13T07:32:54;100876.81;;;9.65;100.00
55679;BME280;41573;51.446;-2.018;2022-10-13T07:35:19;100878.47;;;9.68;100.00
55679;BME280;41573;51.446;-2.018;2022-10-13T07:37:45;100882.69;;;9.72;100.00
55679;BME280;41573;51.446;-2.018;2022-10-13T07:40:11;100876.25;;;9.76;100.00
55679;BME280;41573;51.446;-2.018;2022-10-13T07:42:36;100861.25;;;9.75;100.00
55679;BME280;41573;51.446;-2.018;2022-10-13T07:45:02;100865.59;;;9.76;100.00
55679;BME280;41573;51.446;-2.018;2022-10-13T07:47:28;100872.66;;;9.77;100.00
55679;BME280;41573;51.446;-2.018;2022-10-13T07:49:54;100874.22;;;9.81;100.00
55679;BME280;41573;51.446;-2.018;2022-10-13T07:52:20;100871.47;;;9.83;100.00
55679;BME280;41573;51.446;-2.018;2022-10-13T07:54:45;100871.47;;;9.83;100.00
55679;BME280;41573;51.446;-2.018;2022-10-13T07:57:10;100871.31;;;9.86;100.00
55679;BME280;41573;51.446;-2.018;2022-10-13T07:59:36;100874.84;;;9.87;100.00
55679;BME280;41573;51.446;-2.018;2022-10-13T08:02:02;100876.41;;;9.91;100.00
55679;BME280;41573;51.446;-2.018;2022-10-13T08:04:31;100878.41;;;10.03;100.00
55679;BME280;41573;51.446;-2.018;2022-10-13T08:06:57;100877.81;;;9.98;100.00
55679;BME280;41573;51.446;-2.018;2022-10-13T08:09:23;100869.91;;;9.96;100.00
55679;BME280;41573;51.446;-2.018;2022-10-13T08:11:49;100874.19;;;9.99;100.00
55679;BME280;41573;51.446;-2.018;2022-10-13T08:14:14;100873.97;;;10.04;100.00
55679;BME280;41573;51.446;-2.018;2022-10-13T08:16:40;100872.91;;;10.06;100.00
55679;BME280;41573;51.446;-2.018;2022-10-13T08:19:12;100870.09;;;10.09;100.00
55679;BME280;41573;51.446;-2.018;2022-10-13T08:21:38;100881.34;;;10.14;100.00
55679;BME280;41573;51.446;-2.018;2022-10-13T08:24:05;100873.34;;;10.14;100.00
55679;BME280;41573;51.446;-2.018;2022-10-13T08:26:30;100874.06;;;10.18;100.00
55679;BME280;41573;51.446;-2.018;2022-10-13T08:28:56;100872.88;;;10.24;100.00
55679;BME280;41573;51.446;-2.018;2022-10-13T08:31:22;100876.31;;;10.26;100.00
55679;BME280;41573;51.446;-2.018;2022-10-13T08:33:47;100868.06;;;10.30;100.00
55679;BME280;41573;51.446;-2.018;2022-10-13T08:36:15;100864.38;;;10.33;100.00
55679;BME280;41573;51.446;-2.018;2022-10-13T08:38:40;100868.63;;;10.37;100.00
55679;BME280;41573;51.446;-2.018;2022-10-13T08:41:19;100885.97;;;10.44;100.00
55679;BME280;41573;51.446;-2.018;2022-10-13T08:43:55;100876.88;;;10.48;100.00
55679;BME280;41573;51.446;-2.018;2022-10-13T08:46:27;100879.28;;;10.53;100.00
55679;BME280;41573;51.446;-2.018;2022-10-13T08:48:56;100884.47;;;10.56;100.00
55679;BME280;41573;51.446;-2.018;2022-10-13T08:51:22;100895.13;;;10.56;100.00
55679;BME280;41573;51.446;-2.018;2022-10-13T08:53:48;100891.41;;;10.59;100.00
55679;BME280;41573;51.446;-2.018;2022-10-13T08:56:37;100892.19;;;10.61;100.00
55679;BME280;41573;51.446;-2.018;2022-10-13T08:59:03;100884.13;;;10.62;100.00
55679;BME280;41573;51.446;-2.018;2022-10-13T09:01:34;100887.44;;;10.66;100.00
55679;BME280;41573;51.446;-2.018;2022-10-13T09:06:50;100887.31;;;10.69;100.00
55679;BME280;41573;51.446;-2.018;2022-10-13T09:09:17;100888.06;;;10.71;100.00
55679;BME280;41573;51.446;-2.018;2022-10-13T09:11:46;100880.06;;;10.71;100.00
55679;BME280;41573;51.446;-2.018;2022-10-13T09:16:47;100886.00;;;10.76;100.00
55679;BME280;41573;51.446;-2.018;2022-10-13T09:19:16;100890.38;;;10.77;100.00
55679;BME280;41573;51.446;-2.018;2022-10-13T09:21:43;100884.00;;;10.80;100.00
55679;BME280;41573;51.446;-2.018;2022-10-13T09:24:15;100883.00;;;10.82;100.00
55679;BME280;41573;51.446;-2.018;2022-10-13T09:26:43;100888.13;;;10.85;100.00
55679;BME280;41573;51.446;-2.018;2022-10-13T09:29:14;100887.13;;;10.88;100.00
55679;BME280;41573;51.446;-2.018;2022-10-13T09:31:40;100888.66;;;10.92;100.00
55679;BME280;41573;51.446;-2.018;2022-10-13T09:37:01;100907.84;;;10.99;100.00
55679;BME280;41573;51.446;-2.018;2022-10-13T09:39:32;100913.91;;;11.01;100.00
55679;BME280;41573;51.446;-2.018;2022-10-13T09:42:22;100918.03;;;11.07;100.00
55679;BME280;41573;51.446;-2.018;2022-10-13T09:45:01;100917.00;;;11.09;100.00
55679;BME280;41573;51.446;-2.018;2022-10-13T09:47:37;100913.56;;;11.07;100.00
55679;BME280;41573;51.446;-2.018;2022-10-13T09:52:39;100913.75;;;11.04;100.00
55679;BME280;41573;51.446;-2.018;2022-10-13T09:57:54;100913.56;;;11.07;100.00
55679;BME280;41573;51.446;-2.018;2022-10-13T10:00:27;100920.97;;;11.18;100.00
55679;BME280;41573;51.446;-2.018;2022-10-13T10:06:04;100916.47;;;11.18;100.00
55679;BME280;41573;51.446;-2.018;2022-10-13T10:08:44;100918.09;;;11.21;100.00
55679;BME280;41573;51.446;-2.018;2022-10-13T10:11:18;100922.31;;;11.25;100.00
55679;BME280;41573;51.446;-2.018;2022-10-13T10:13:44;100933.81;;;11.26;100.00
55679;BME280;41573;51.446;-2.018;2022-10-13T10:18:45;100920.69;;;11.23;100.00
55679;BME280;41573;51.446;-2.018;2022-10-13T10:23:53;100920.09;;;11.17;100.00
55679;BME280;41573;51.446;-2.018;2022-10-13T10:45:28;100907.72;;;11.16;100.00
55679;BME280;41573;51.446;-2.018;2022-10-13T10:48:05;100911.31;;;11.15;100.00
55679;BME280;41573;51.446;-2.018;2022-10-13T10:50:33;100907.28;;;11.08;100.00
55679;BME280;41573;51.446;-2.018;2022-10-13T10:53:11;100915.91;;;11.13;100.00
55679;BME280;41573;51.446;-2.018;2022-10-13T10:55:48;100927.31;;;11.15;100.00
55679;BME280;41573;51.446;-2.018;2022-10-13T11:01:13;100943.66;;;11.09;100.00
55679;BME280;41573;51.446;-2.018;2022-10-13T11:03:59;100940.38;;;11.04;100.00
55679;BME280;41573;51.446;-2.018;2022-10-13T11:06:36;100941.41;;;11.01;100.00
55679;BME280;41573;51.446;-2.018;2022-10-13T11:09:03;100946.25;;;10.95;100.00
55679;BME280;41573;51.446;-2.018;2022-10-13T11:11:31;100933.78;;;10.95;100.00
55679;BME280;41573;51.446;-2.018;2022-10-13T11:16:39;100937.16;;;10.99;100.00
55679;BME280;41573;51.446;-2.018;2022-10-13T11:43:45;100897.25;;;11.13;100.00
55679;BME280;41573;51.446;-2.018;2022-10-13T11:46:23;100888.44;;;11.11;100.00
55679;BME280;41573;51.446;-2.018;2022-10-13T11:51:45;100885.78;;;11.11;100.00
55679;BME280;41573;51.446;-2.018;2022-10-13T11:54:35;100888.72;;;11.07;100.00
55679;BME280;41573;51.446;-2.018;2022-10-13T11:57:17;100885.88;;;11.10;100.00
55679;BME280;41573;51.446;-2.018;2022-10-13T11:59:45;100886.41;;;11.16;100.00
55679;BME280;41573;51.446;-2.018;2022-10-13T12:02:15;100879.16;;;11.18;100.00
55679;BME280;41573;51.446;-2.018;2022-10-13T12:04:43;100875.03;;;11.13;100.00
55679;BME280;41573;51.446;-2.018;2022-10-13T12:07:10;100874.59;;;11.20;100.00
55679;BME280;41573;51.446;-2.018;2022-10-13T12:09:55;100869.69;;;11.29;100.00
55679;BME280;41573;51.446;-2.018;2022-10-13T12:12:22;100863.28;;;11.31;100.00
55679;BME280;41573;51.446;-2.018;2022-10-13T12:14:53;100862.84;;;11.39;100.00
55679;BME280;41573;51.446;-2.018;2022-10-13T12:19:56;100861.16;;;11.52;100.00
55679;BME280;41573;51.446;-2.018;2022-10-13T12:22:22;100867.28;;;11.54;100.00
55679;BME280;41573;51.446;-2.018;2022-10-13T12:25:05;100862.16;;;11.66;100.00
55679;BME280;41573;51.446;-2.018;2022-10-13T12:27:41;100863.22;;;11.92;100.00
55679;BME280;41573;51.446;-2.018;2022-10-13T12:30:21;100866.22;;;12.16;100.00
55679;BME280;41573;51.446;-2.018;2022-10-13T12:32:49;100861.03;;;12.42;100.00
55679;BME280;41573;51.446;-2.018;2022-10-13T12:35:21;100853.97;;;12.55;100.00
55679;BME280;41573;51.446;-2.018;2022-10-13T12:37:48;100858.03;;;12.75;100.00
55679;BME280;41573;51.446;-2.018;2022-10-13T12:40:16;100856.56;;;12.84;100.00
55679;BME280;41573;51.446;-2.018;2022-10-13T12:42:43;100849.84;;;12.91;100.00
55679;BME280;41573;51.446;-2.018;2022-10-13T12:45:23;100835.34;;;12.96;100.00
55679;BME280;41573;51.446;-2.018;2022-10-13T12:47:52;100823.88;;;13.21;100.00
55679;BME280;41573;51.446;-2.018;2022-10-13T12:55:54;100798.97;;;13.33;100.00
55679;BME280;41573;51.446;-2.018;2022-10-13T12:58:28;100793.22;;;13.52;100.00
55679;BME280;41573;51.446;-2.018;2022-10-13T13:03:30;100764.34;;;13.57;100.00
55679;BME280;41573;51.446;-2.018;2022-10-13T13:06:31;100746.66;;;13.68;100.00
55679;BME280;41573;51.446;-2.018;2022-10-13T13:09:14;100727.72;;;13.71;100.00
55679;BME280;41573;51.446;-2.018;2022-10-13T13:11:42;100711.97;;;13.79;100.00
55679;BME280;41573;51.446;-2.018;2022-10-13T13:17:10;100685.13;;;14.05;100.00
55679;BME280;41573;51.446;-2.018;2022-10-13T13:19:36;100675.38;;;14.04;100.00
55679;BME280;41573;51.446;-2.018;2022-10-13T13:22:03;100668.09;;;14.06;100.00
55679;BME280;41573;51.446;-2.018;2022-10-13T13:24:29;100670.06;;;14.15;100.00
55679;BME280;41573;51.446;-2.018;2022-10-13T13:26:54;100664.25;;;14.21;100.00
55679;BME280;41573;51.446;-2.018;2022-10-13T13:29:19;100653.47;;;14.23;100.00
55679;BME280;41573;51.446;-2.018;2022-10-13T13:31:45;100652.81;;;14.19;100.00
55679;BME280;41573;51.446;-2.018;2022-10-13T13:34:10;100661.03;;;14.05;100.00
55679;BME280;41573;51.446;-2.018;2022-10-13T13:36:35;100653.16;;;13.90;100.00
55679;BME280;41573;51.446;-2.018;2022-10-13T13:39:01;100651.66;;;13.86;100.00
55679;BME280;41573;51.446;-2.018;2022-10-13T13:41:26;100655.63;;;13.81;100.00
55679;BME280;41573;51.446;-2.018;2022-10-13T13:43:55;100651.66;;;13.86;100.00
55679;BME280;41573;51.446;-2.018;2022-10-13T13:46:23;100643.63;;;13.86;100.00
55679;BME280;41573;51.446;-2.018;2022-10-13T13:48:48;100633.66;;;13.88;100.00
55679;BME280;41573;51.446;-2.018;2022-10-13T13:51:14;100633.66;;;13.88;100.00
55679;BME280;41573;51.446;-2.018;2022-10-13T13:53:40;100625.81;;;13.98;100.00
55679;BME280;41573;51.446;-2.018;2022-10-13T13:56:14;100630.81;;;14.03;100.00
55679;BME280;41573;51.446;-2.018;2022-10-13T13:58:40;100632.53;;;14.04;100.00
55679;BME280;41573;51.446;-2.018;2022-10-13T14:01:05;100639.00;;;14.12;100.00
55679;BME280;41573;51.446;-2.018;2022-10-13T14:03:30;100644.06;;;14.17;100.00
55679;BME280;41573;51.446;-2.018;2022-10-13T14:05:56;100631.63;;;14.16;100.00
55679;BME280;41573;51.446;-2.018;2022-10-13T14:08:21;100636.03;;;14.17;100.00
55679;BME280;41573;51.446;-2.018;2022-10-13T14:10:47;100620.69;;;14.19;100.00
55679;BME280;41573;51.446;-2.018;2022-10-13T14:13:12;100625.78;;;14.22;100.00
55679;BME280;41573;51.446;-2.018;2022-10-13T14:15:37;100620.63;;;14.68;100.00
55679;BME280;41573;51.446;-2.018;2022-10-13T14:18:03;100611.19;;;14.97;100.00
55679;BME280;41573;51.446;-2.018;2022-10-13T14:20:28;100599.84;;;16.06;100.00
55679;BME280;41573;51.446;-2.018;2022-10-13T14:22:54;100576.91;;;16.97;100.00
55679;BME280;41573;51.446;-2.018;2022-10-13T14:25:19;100572.06;;;17.92;100.00
55679;BME280;41573;51.446;-2.018;2022-10-13T14:27:44;100560.22;;;18.91;100.00